createdAt,value
2018-08-19T00:00:17.422Z,88.35
2018-08-19T00:01:17.347Z,88.55
2018-08-19T00:03:10.114Z,90.18
2018-08-19T00:04:10.029Z,90.75
2018-08-19T00:06:02.791Z,89.03
2018-08-19T00:07:02.709Z,88.93
2018-08-19T00:08:55.460Z,89.99
2018-08-19T00:09:55.381Z,89.70
2018-08-19T00:11:48.156Z,90.22
2018-08-19T00:12:48.068Z,91.24
2018-08-19T00:14:41.064Z,88.84
2018-08-19T00:15:40.989Z,88.84
2018-08-19T00:17:33.994Z,91.91
2018-08-19T00:18:33.911Z,91.42
2018-08-19T00:20:26.674Z,91.24
2018-08-19T00:21:26.591Z,91.81
2018-08-19T00:23:19.358Z,90.37
2018-08-19T00:24:19.272Z,90.08
2018-08-19T00:26:12.042Z,90.95
2018-08-19T00:27:11.957Z,90.81
2018-08-19T00:29:04.705Z,91.28
2018-08-19T00:30:04.634Z,91.28
2018-08-19T00:31:57.395Z,93.88
2018-08-19T00:32:57.310Z,93.88
2018-08-19T00:34:50.070Z,92.91
2018-08-19T00:35:49.995Z,92.44
2018-08-19T00:37:43.002Z,93.68
2018-08-19T00:38:42.910Z,94.26
2018-08-19T00:40:35.924Z,93.59
2018-08-19T00:41:35.847Z,94.07
2018-08-19T00:43:28.610Z,94.59
2018-08-19T00:44:28.525Z,94.54
2018-08-19T00:46:21.789Z,95.31
2018-08-19T00:47:21.703Z,95.75
2018-08-19T00:49:14.462Z,96.08
2018-08-19T00:50:14.382Z,95.21
2018-08-19T00:52:07.144Z,96.94
2018-08-19T00:53:07.060Z,97.23
2018-08-19T00:54:59.815Z,97.09
2018-08-19T00:55:59.739Z,97.23
2018-08-19T00:57:52.500Z,97.28
2018-08-19T00:58:52.416Z,97.95
2018-08-19T01:00:45.442Z,99.19
2018-08-19T01:01:45.366Z,98.81
2018-08-19T01:03:38.425Z,99.99
2018-08-19T01:04:38.340Z,99.99
2018-08-19T01:06:31.095Z,99.39
2018-08-19T01:07:31.021Z,98.62
2018-08-19T01:09:23.786Z,99.99
2018-08-19T01:10:23.704Z,99.99
2018-08-19T01:12:16.547Z,99.99
2018-08-19T01:13:16.390Z,99.99
2018-08-19T01:15:09.139Z,99.77
2018-08-19T01:16:09.066Z,99.68
2018-08-19T01:18:01.857Z,99.39
2018-08-19T01:19:01.746Z,99.19
2018-08-19T01:20:54.505Z,98.14
2018-08-19T01:21:54.428Z,97.56
2018-08-19T01:23:47.207Z,98.52
2018-08-19T01:24:47.108Z,98.38
2018-08-19T01:26:40.109Z,98.67
2018-08-19T01:27:40.028Z,99.99
2018-08-19T01:29:32.794Z,99.99
2018-08-19T01:30:32.706Z,99.99
2018-08-19T01:32:25.479Z,99.99
2018-08-19T01:33:25.392Z,99.96
2018-08-19T01:35:18.146Z,99.01
2018-08-19T01:36:18.075Z,99.99
2018-08-19T01:38:10.833Z,99.34
2018-08-19T01:39:10.750Z,99.43
2018-08-19T01:41:03.501Z,99.24
2018-08-19T01:42:03.428Z,99.82
2018-08-19T01:43:56.187Z,99.99
2018-08-19T01:44:56.102Z,99.99
2018-08-19T01:46:49.056Z,99.99
2018-08-19T01:47:48.977Z,99.99
2018-08-19T01:49:41.997Z,99.99
2018-08-19T01:50:41.908Z,99.99
2018-08-19T01:52:34.691Z,99.99
2018-08-19T01:53:34.609Z,99.99
2018-08-19T01:55:27.379Z,99.99
2018-08-19T01:56:27.290Z,99.99
2018-08-19T01:58:20.058Z,99.99
2018-08-19T01:59:19.970Z,99.99
2018-08-19T02:01:12.829Z,99.99
2018-08-19T02:02:12.752Z,99.99
2018-08-19T02:04:05.512Z,99.99
2018-08-19T02:05:05.428Z,99.99
2018-08-19T02:06:58.186Z,99.99
2018-08-19T02:07:58.106Z,99.99
2018-08-19T02:09:51.066Z,99.99
2018-08-19T02:10:50.981Z,99.99
2018-08-19T02:12:44.226Z,99.99
2018-08-19T02:13:44.156Z,99.99
2018-08-19T02:15:37.160Z,99.99
2018-08-19T02:16:37.069Z,99.99
2018-08-19T02:18:29.834Z,99.99
2018-08-19T02:19:29.751Z,99.99
2018-08-19T02:21:22.502Z,99.99
2018-08-19T02:22:22.476Z,99.99
2018-08-19T02:24:15.215Z,99.99
2018-08-19T02:25:15.124Z,99.99
2018-08-19T02:27:07.878Z,99.99
2018-08-19T02:28:07.798Z,99.99
2018-08-19T02:30:00.569Z,99.99
2018-08-19T02:31:00.482Z,99.99
2018-08-19T02:32:53.241Z,99.99
2018-08-19T02:33:53.159Z,99.99
2018-08-19T02:35:46.157Z,99.99
2018-08-19T02:36:46.070Z,99.99
2018-08-19T02:38:39.120Z,99.99
2018-08-19T02:39:39.031Z,99.99
2018-08-19T02:41:31.792Z,99.99
2018-08-19T02:42:31.707Z,99.99
2018-08-19T02:44:24.473Z,99.99
2018-08-19T02:45:24.390Z,99.99
2018-08-19T02:47:17.133Z,99.99
2018-08-19T02:48:17.061Z,99.99
2018-08-19T02:50:09.823Z,99.99
2018-08-19T02:51:09.738Z,99.99
2018-08-19T02:53:02.581Z,99.99
2018-08-19T02:54:02.414Z,99.99
2018-08-19T02:55:55.180Z,99.99
2018-08-19T02:56:55.097Z,99.99
2018-08-19T02:58:47.854Z,99.99
2018-08-19T02:59:47.772Z,99.99
2018-08-19T03:01:40.585Z,99.99
2018-08-19T03:02:40.510Z,99.99
2018-08-19T03:04:33.273Z,99.99
2018-08-19T03:05:33.184Z,99.99
2018-08-19T03:07:26.173Z,99.99
2018-08-19T03:08:26.092Z,99.99
2018-08-19T03:10:18.860Z,99.99
2018-08-19T03:11:18.777Z,99.99
2018-08-19T03:13:11.529Z,99.99
2018-08-19T03:14:11.451Z,99.99
2018-08-19T03:16:04.217Z,99.99
2018-08-19T03:17:04.131Z,99.99
2018-08-19T03:18:56.898Z,99.99
2018-08-19T03:19:56.818Z,99.99
2018-08-19T03:21:49.584Z,99.99
2018-08-19T03:22:49.492Z,99.99
2018-08-19T03:24:42.828Z,99.99
2018-08-19T03:25:42.734Z,99.99
2018-08-19T03:27:35.494Z,99.99
2018-08-19T03:28:35.415Z,99.99
2018-08-19T03:30:28.173Z,99.99
2018-08-19T03:31:28.087Z,99.99
2018-08-19T03:33:20.842Z,99.99
2018-08-19T03:34:20.761Z,99.99
2018-08-19T03:36:13.524Z,99.99
2018-08-19T03:37:13.438Z,99.99
2018-08-19T03:39:06.197Z,99.99
2018-08-19T03:40:06.116Z,99.99
2018-08-19T03:41:58.879Z,99.99
2018-08-19T03:42:58.793Z,99.99
2018-08-19T03:44:51.554Z,99.99
2018-08-19T03:45:51.473Z,99.99
2018-08-19T03:47:44.581Z,99.99
2018-08-19T03:48:44.504Z,99.99
2018-08-19T03:50:37.263Z,99.99
2018-08-19T03:51:37.181Z,99.99
2018-08-19T03:53:29.932Z,99.99
2018-08-19T03:54:29.853Z,99.99
2018-08-19T03:56:22.614Z,99.99
2018-08-19T03:57:22.526Z,99.99
2018-08-19T03:59:15.277Z,99.99
2018-08-19T04:00:15.198Z,99.99
2018-08-19T04:02:07.962Z,99.99
2018-08-19T04:03:07.868Z,99.99
2018-08-19T04:05:00.626Z,99.99
2018-08-19T04:06:00.547Z,99.99
2018-08-19T04:07:53.307Z,99.99
2018-08-19T04:08:53.219Z,99.99
2018-08-19T04:10:45.981Z,99.99
2018-08-19T04:11:45.899Z,99.99
2018-08-19T04:13:38.642Z,99.99
2018-08-19T04:14:38.568Z,99.99
2018-08-19T04:16:31.326Z,99.99
2018-08-19T04:17:31.260Z,99.99
2018-08-19T04:19:31.274Z,99.99
2018-08-19T04:22:03.300Z,99.99
2018-08-19T04:23:03.135Z,99.99
2018-08-19T04:24:55.886Z,99.99
2018-08-19T04:25:55.810Z,99.99
2018-08-19T04:27:48.569Z,99.99
2018-08-19T04:28:48.482Z,99.99
2018-08-19T04:30:41.483Z,99.99
2018-08-19T04:31:41.397Z,99.99
2018-08-19T04:33:34.153Z,99.99
2018-08-19T04:34:34.075Z,99.99
2018-08-19T04:36:26.828Z,99.99
2018-08-19T04:37:26.747Z,99.99
2018-08-19T04:39:19.502Z,99.99
2018-08-19T04:40:19.421Z,99.99
2018-08-19T04:42:12.193Z,99.99
2018-08-19T04:43:12.099Z,99.99
2018-08-19T04:45:04.848Z,99.99
2018-08-19T04:46:04.773Z,99.99
2018-08-19T04:47:57.541Z,99.99
2018-08-19T04:48:57.458Z,99.99
2018-08-19T04:50:50.405Z,99.99
2018-08-19T04:51:50.336Z,99.99
2018-08-19T04:53:43.335Z,99.99
2018-08-19T04:54:43.250Z,99.99
2018-08-19T04:56:36.008Z,99.99
2018-08-19T04:57:35.925Z,99.99
2018-08-19T04:59:28.678Z,99.99
2018-08-19T05:00:28.598Z,99.99
2018-08-19T05:02:21.432Z,99.99
2018-08-19T05:03:21.272Z,99.99
2018-08-19T05:05:14.022Z,99.99
2018-08-19T05:06:13.948Z,99.99
2018-08-19T05:08:06.870Z,99.99
2018-08-19T05:09:06.618Z,99.99
2018-08-19T05:10:59.369Z,99.99
2018-08-19T05:11:59.292Z,99.99
2018-08-19T05:13:52.060Z,99.99
2018-08-19T05:14:51.974Z,99.99
2018-08-19T05:16:45.313Z,99.99
2018-08-19T05:17:45.224Z,99.99
2018-08-19T05:19:37.975Z,99.99
2018-08-19T05:20:37.896Z,99.99
2018-08-19T05:22:30.677Z,99.99
2018-08-19T05:23:30.568Z,99.99
2018-08-19T05:25:23.321Z,99.99
2018-08-19T05:26:23.244Z,99.99
2018-08-19T05:28:16.048Z,99.99
2018-08-19T05:29:15.925Z,99.99
2018-08-19T05:31:08.679Z,99.99
2018-08-19T05:32:08.601Z,99.99
2018-08-19T05:34:01.369Z,99.99
2018-08-19T05:35:01.282Z,99.99
2018-08-19T05:36:54.054Z,99.99
2018-08-19T05:37:54.009Z,99.99
2018-08-19T05:39:46.945Z,99.99
2018-08-19T05:40:46.869Z,99.99
2018-08-19T05:42:39.825Z,99.99
2018-08-19T05:43:39.745Z,99.99
2018-08-19T05:45:32.500Z,99.99
2018-08-19T05:46:32.422Z,99.99
2018-08-19T05:48:25.380Z,99.99
2018-08-19T05:49:25.300Z,99.99
2018-08-19T05:51:18.062Z,99.99
2018-08-19T05:52:17.982Z,99.99
2018-08-19T05:54:10.792Z,99.99
2018-08-19T05:55:10.657Z,99.99
2018-08-19T05:57:03.408Z,99.99
2018-08-19T05:58:03.329Z,99.99
2018-08-19T05:59:56.091Z,99.99
2018-08-19T06:00:56.001Z,99.99
2018-08-19T06:02:48.785Z,99.99
2018-08-19T06:03:48.696Z,99.99
2018-08-19T06:05:41.451Z,99.99
2018-08-19T06:06:41.374Z,99.99
2018-08-19T06:08:34.133Z,99.99
2018-08-19T06:09:34.048Z,99.99
2018-08-19T06:11:26.807Z,99.99
2018-08-19T06:12:26.729Z,99.99
2018-08-19T06:14:19.489Z,99.99
2018-08-19T06:15:19.404Z,99.99
2018-08-19T06:17:12.155Z,99.99
2018-08-19T06:18:12.079Z,99.99
2018-08-19T06:20:04.839Z,99.99
2018-08-19T06:21:04.758Z,99.99
2018-08-19T06:22:57.521Z,99.99
2018-08-19T06:23:57.434Z,99.87
2018-08-19T06:25:50.188Z,99.99
2018-08-19T06:26:50.113Z,99.96
2018-08-19T06:28:42.873Z,99.91
2018-08-19T06:29:42.791Z,99.34
2018-08-19T06:31:35.544Z,99.63
2018-08-19T06:32:35.470Z,98.86
2018-08-19T06:34:28.298Z,98.77
2018-08-19T06:35:28.149Z,98.67
2018-08-19T06:37:21.113Z,98.57
2018-08-19T06:38:21.030Z,98.67
2018-08-19T06:40:13.792Z,97.19
2018-08-19T06:41:13.709Z,97.14
2018-08-19T06:43:06.526Z,98.05
2018-08-19T06:44:06.391Z,97.04
2018-08-19T06:45:59.148Z,96.66
2018-08-19T06:46:59.067Z,97.19
2018-08-19T06:48:51.835Z,97.47
2018-08-19T06:49:51.752Z,96.51
2018-08-19T06:51:45.905Z,95.41
2018-08-19T06:52:45.835Z,94.64
2018-08-19T06:54:39.845Z,94.93
2018-08-19T06:55:39.735Z,94.07
2018-08-19T06:57:32.502Z,92.72
2018-08-19T06:58:32.424Z,92.43
2018-08-19T07:00:25.186Z,92.82
2018-08-19T07:01:25.103Z,93.39
2018-08-19T07:03:18.416Z,93.68
2018-08-19T07:04:18.274Z,93.39
2018-08-19T07:06:11.030Z,91.42
2018-08-19T07:07:10.957Z,92.43
2018-08-19T07:09:03.720Z,93.25
2018-08-19T07:10:03.635Z,93.15
2018-08-19T07:11:56.390Z,91.13
2018-08-19T07:12:56.315Z,91.33
2018-08-19T07:14:49.081Z,90.99
2018-08-19T07:15:48.999Z,90.22
2018-08-19T07:17:42.063Z,89.45
2018-08-19T07:18:41.992Z,89.74
2018-08-19T07:20:34.744Z,88.97
2018-08-19T07:21:34.672Z,88.39
2018-08-19T07:23:27.613Z,89.07
2018-08-19T07:24:27.532Z,88.97
2018-08-19T07:26:20.310Z,88.53
2018-08-19T07:27:20.239Z,88.01
2018-08-19T07:29:13.008Z,88.10
2018-08-19T07:30:12.922Z,87.92
2018-08-19T07:32:05.684Z,87.09
2018-08-19T07:33:05.608Z,88.06
2018-08-19T07:34:58.373Z,88.63
2018-08-19T07:35:58.289Z,88.15
2018-08-19T07:37:51.048Z,85.94
2018-08-19T07:38:50.971Z,86.32
2018-08-19T07:40:44.279Z,86.22
2018-08-19T07:41:44.198Z,86.13
2018-08-19T07:43:37.217Z,85.75
2018-08-19T07:44:37.118Z,85.40
2018-08-19T07:46:29.876Z,85.88
2018-08-19T07:47:29.797Z,85.50
2018-08-19T07:49:22.574Z,84.16
2018-08-19T07:50:22.487Z,83.48
2018-08-19T07:52:15.444Z,83.77
2018-08-19T07:53:15.368Z,83.72
2018-08-19T07:55:08.133Z,81.50
2018-08-19T07:56:08.052Z,81.88
2018-08-19T07:58:00.805Z,81.02
2018-08-19T07:59:00.731Z,81.88
2018-08-19T08:00:53.500Z,81.50
2018-08-19T08:01:53.413Z,81.02
2018-08-19T08:03:46.422Z,79.67
2018-08-19T08:04:46.346Z,79.00
2018-08-19T08:06:39.115Z,79.67
2018-08-19T08:07:39.035Z,78.75
2018-08-19T08:09:31.816Z,79.71
2018-08-19T08:10:31.720Z,79.61
2018-08-19T08:12:24.497Z,79.71
2018-08-19T08:13:24.409Z,78.36
2018-08-19T08:15:17.184Z,78.94
2018-08-19T08:16:17.097Z,78.27
2018-08-19T08:18:09.854Z,78.27
2018-08-19T08:19:09.780Z,78.46
2018-08-19T08:21:02.756Z,78.46
2018-08-19T08:22:02.670Z,77.21
2018-08-19T08:23:55.430Z,77.40
2018-08-19T08:24:55.356Z,77.83
2018-08-19T08:26:48.122Z,77.44
2018-08-19T08:27:48.041Z,77.73
2018-08-19T08:29:40.824Z,76.38
2018-08-19T08:30:40.752Z,75.51
2018-08-19T08:32:33.520Z,75.80
2018-08-19T08:33:33.437Z,75.65
2018-08-19T08:35:26.205Z,76.90
2018-08-19T08:36:26.126Z,76.13
2018-08-19T08:38:18.893Z,75.16
2018-08-19T08:39:18.807Z,75.07
2018-08-19T08:41:11.583Z,73.66
2018-08-19T08:42:11.499Z,73.66
2018-08-19T08:44:04.265Z,73.57
2018-08-19T08:45:04.188Z,72.50
2018-08-19T08:46:56.962Z,72.21
2018-08-19T08:47:56.910Z,72.79
2018-08-19T08:49:49.643Z,71.67
2018-08-19T08:50:49.574Z,71.67
2018-08-19T08:52:42.339Z,70.36
2018-08-19T08:53:42.262Z,70.06
2018-08-19T08:55:35.042Z,68.62
2018-08-19T08:56:34.961Z,69.29
2018-08-19T08:58:27.721Z,69.49
2018-08-19T08:59:27.649Z,68.23
2018-08-19T09:01:20.420Z,66.85
2018-08-19T09:02:20.340Z,65.92
2018-08-19T09:04:13.103Z,64.89
2018-08-19T09:05:13.030Z,65.08
2018-08-19T09:07:05.800Z,63.46
2018-08-19T09:08:05.723Z,61.72
2018-08-19T09:09:58.485Z,63.18
2018-08-19T09:10:58.414Z,63.08
2018-08-19T09:12:51.194Z,64.31
2018-08-19T09:13:51.115Z,64.43
2018-08-19T09:15:44.189Z,60.46
2018-08-19T09:16:44.114Z,60.17
2018-08-19T09:18:36.893Z,58.98
2018-08-19T09:19:36.814Z,59.17
2018-08-19T09:21:29.595Z,59.63
2018-08-19T09:22:29.513Z,60.14
2018-08-19T09:24:22.284Z,57.32
2018-08-19T09:25:22.213Z,56.28
2018-08-19T09:27:14.987Z,53.52
2018-08-19T09:28:14.906Z,53.49
2018-08-19T09:30:07.677Z,52.72
2018-08-19T09:31:07.609Z,53.49
2018-08-19T09:33:00.449Z,51.99
2018-08-19T09:34:00.313Z,51.17
2018-08-19T09:35:53.084Z,48.46
2018-08-19T09:36:53.015Z,48.90
2018-08-19T09:38:45.814Z,50.82
2018-08-19T09:39:45.733Z,50.92
2018-08-19T09:41:38.754Z,50.48
2018-08-19T09:42:38.681Z,48.85
2018-08-19T09:44:31.692Z,47.88
2018-08-19T09:45:31.628Z,47.42
2018-08-19T09:47:24.415Z,47.61
2018-08-19T09:48:24.349Z,48.10
2018-08-19T09:50:17.126Z,47.39
2018-08-19T09:51:17.064Z,48.41
2018-08-19T09:53:09.852Z,50.38
2018-08-19T09:54:09.816Z,47.25
2018-08-19T09:56:02.561Z,46.34
2018-08-19T09:57:02.499Z,47.59
2018-08-19T09:58:55.284Z,48.34
2018-08-19T09:59:55.213Z,49.87
2018-08-19T10:01:48.035Z,47.42
2018-08-19T10:02:47.963Z,46.39
2018-08-19T10:04:40.745Z,44.27
2018-08-19T10:05:40.678Z,44.80
2018-08-19T10:07:33.714Z,45.03
2018-08-19T10:08:33.640Z,45.71
2018-08-19T10:10:26.427Z,46.30
2018-08-19T10:11:26.364Z,46.73
2018-08-19T10:13:19.159Z,47.34
2018-08-19T10:14:19.082Z,46.61
2018-08-19T10:16:11.862Z,48.61
2018-08-19T10:17:11.801Z,48.41
2018-08-19T10:19:04.588Z,48.27
2018-08-19T10:20:04.514Z,48.54
2018-08-19T10:21:57.309Z,49.02
2018-08-19T10:22:57.235Z,47.59
2018-08-19T10:24:50.015Z,46.10
2018-08-19T10:25:49.947Z,44.76
2018-08-19T10:27:43.006Z,43.88
2018-08-19T10:28:42.937Z,43.98
2018-08-19T10:30:35.718Z,46.54
2018-08-19T10:31:35.654Z,47.59
2018-08-19T10:33:28.464Z,50.07
2018-08-19T10:34:28.391Z,49.49
2018-08-19T10:36:21.176Z,49.58
2018-08-19T10:37:21.110Z,49.76
2018-08-19T10:39:13.976Z,51.93
2018-08-19T10:40:13.830Z,53.63
2018-08-19T10:42:06.629Z,54.48
2018-08-19T10:43:06.546Z,54.96
2018-08-19T10:44:59.516Z,55.44
2018-08-19T10:45:59.452Z,55.44
2018-08-19T10:47:52.232Z,56.87
2018-08-19T10:48:52.154Z,56.65
2018-08-19T10:50:44.928Z,57.69
2018-08-19T10:51:44.857Z,57.76
2018-08-19T10:53:37.872Z,58.95
2018-08-19T10:54:37.800Z,58.14
2018-08-19T10:56:30.795Z,59.40
2018-08-19T10:57:30.728Z,59.23
2018-08-19T10:59:23.506Z,57.26
2018-08-19T11:00:23.427Z,56.59
2018-08-19T11:02:16.192Z,55.54
2018-08-19T11:03:16.126Z,55.35
2018-08-19T11:05:08.902Z,56.00
2018-08-19T11:06:08.820Z,56.87
2018-08-19T11:08:01.684Z,57.75
2018-08-19T11:09:01.517Z,57.07
2018-08-19T11:10:54.527Z,55.54
2018-08-19T11:11:54.454Z,54.96
2018-08-19T11:13:47.495Z,54.86
2018-08-19T11:14:47.414Z,55.74
2018-08-19T11:16:40.183Z,56.81
2018-08-19T11:17:40.113Z,56.03
2018-08-19T11:19:33.126Z,55.54
2018-08-19T11:20:33.047Z,55.44
2018-08-19T11:22:25.823Z,54.96
2018-08-19T11:23:25.750Z,54.77
2018-08-19T11:25:18.533Z,53.83
2018-08-19T11:26:18.452Z,53.44
2018-08-19T11:28:11.219Z,54.02
2018-08-19T11:29:11.147Z,53.53
2018-08-19T11:31:03.977Z,54.31
2018-08-19T11:32:03.856Z,54.41
2018-08-19T11:33:56.637Z,54.31
2018-08-19T11:34:56.549Z,54.41
2018-08-19T11:36:49.516Z,53.63
2018-08-19T11:37:49.446Z,54.11
2018-08-19T11:39:43.082Z,54.14
2018-08-19T11:40:43.003Z,53.15
2018-08-19T11:42:35.883Z,55.28
2018-08-19T11:43:35.815Z,54.41
2018-08-19T11:45:28.589Z,54.02
2018-08-19T11:46:28.516Z,54.28
2018-08-19T11:48:21.285Z,55.28
2018-08-19T11:49:21.213Z,54.31
2018-08-19T11:51:13.998Z,53.92
2018-08-19T11:52:13.915Z,54.14
2018-08-19T11:54:06.702Z,53.15
2018-08-19T11:55:06.609Z,54.41
2018-08-19T11:56:59.388Z,53.44
2018-08-19T11:57:59.308Z,53.75
2018-08-19T11:59:52.080Z,53.56
2018-08-19T12:00:52.008Z,53.95
2018-08-19T12:02:45.009Z,53.95
2018-08-19T12:03:44.938Z,53.56
2018-08-19T12:05:37.978Z,53.17
2018-08-19T12:06:37.878Z,53.08
2018-08-19T12:08:30.646Z,52.62
2018-08-19T12:09:30.591Z,52.42
2018-08-19T12:11:23.346Z,51.75
2018-08-19T12:12:23.270Z,51.75
2018-08-19T12:14:16.031Z,52.23
2018-08-19T12:15:15.964Z,52.91
2018-08-19T12:17:08.778Z,53.00
2018-08-19T12:18:08.666Z,53.20
2018-08-19T12:20:01.428Z,51.84
2018-08-19T12:21:01.359Z,51.65
2018-08-19T12:22:54.130Z,52.23
2018-08-19T12:23:54.049Z,52.13
2018-08-19T12:25:47.401Z,52.78
2018-08-19T12:26:47.315Z,53.34
2018-08-19T12:28:40.327Z,53.24
2018-08-19T12:29:40.255Z,52.88
2018-08-19T12:31:33.098Z,53.75
2018-08-19T12:32:33.014Z,52.33
2018-08-19T12:34:25.787Z,52.62
2018-08-19T12:35:25.716Z,53.39
2018-08-19T12:37:18.633Z,52.78
2018-08-19T12:38:18.414Z,52.98
2018-08-19T12:40:11.183Z,52.72
2018-08-19T12:41:11.116Z,52.42
2018-08-19T12:43:03.932Z,53.30
2018-08-19T12:44:03.833Z,53.03
2018-08-19T12:45:56.789Z,51.48
2018-08-19T12:46:56.711Z,51.38
2018-08-19T12:48:49.489Z,52.35
2018-08-19T12:49:49.419Z,51.26
2018-08-19T12:51:42.740Z,52.15
2018-08-19T12:52:42.664Z,52.06
2018-08-19T12:54:35.666Z,51.28
2018-08-19T12:55:35.595Z,51.01
2018-08-19T12:57:28.371Z,51.01
2018-08-19T12:58:28.294Z,50.73
2018-08-19T13:00:21.062Z,50.04
2018-08-19T13:01:20.986Z,49.85
2018-08-19T13:03:13.765Z,50.80
2018-08-19T13:04:13.685Z,50.24
2018-08-19T13:06:06.626Z,50.12
2018-08-19T13:07:06.484Z,51.28
2018-08-19T13:08:59.256Z,50.63
2018-08-19T13:09:59.183Z,50.43
2018-08-19T13:11:51.962Z,50.24
2018-08-19T13:12:51.885Z,51.01
2018-08-19T13:14:44.653Z,49.29
2018-08-19T13:15:44.590Z,49.49
2018-08-19T13:17:37.441Z,49.97
2018-08-19T13:18:37.365Z,49.41
2018-08-19T13:20:30.133Z,48.95
2018-08-19T13:21:30.064Z,48.46
2018-08-19T13:23:22.843Z,47.20
2018-08-19T13:24:22.761Z,46.71
2018-08-19T13:26:15.532Z,47.69
2018-08-19T13:27:15.462Z,48.56
2018-08-19T13:29:08.238Z,47.88
2018-08-19T13:30:08.159Z,47.88
2018-08-19T13:32:00.930Z,46.64
2018-08-19T13:33:00.866Z,46.76
2018-08-19T13:34:53.641Z,46.47
2018-08-19T13:35:53.566Z,46.47
2018-08-19T13:37:46.345Z,45.88
2018-08-19T13:38:46.269Z,45.49
2018-08-19T13:40:39.151Z,45.49
2018-08-19T13:41:39.084Z,46.25
2018-08-19T13:43:32.114Z,46.76
2018-08-19T13:44:32.031Z,45.59
2018-08-19T13:46:24.803Z,46.76
2018-08-19T13:47:24.732Z,46.56
2018-08-19T13:49:17.513Z,46.66
2018-08-19T13:50:17.443Z,45.68
2018-08-19T13:52:10.209Z,46.27
2018-08-19T13:53:10.143Z,46.95
2018-08-19T13:55:02.940Z,45.00
2018-08-19T13:56:02.856Z,45.00
2018-08-19T13:57:55.626Z,44.05
2018-08-19T13:58:55.553Z,45.32
2018-08-19T14:00:48.454Z,44.24
2018-08-19T14:01:48.374Z,43.74
2018-08-19T14:03:41.391Z,44.32
2018-08-19T14:04:41.327Z,44.30
2018-08-19T14:06:34.345Z,45.74
2018-08-19T14:07:34.265Z,45.54
2018-08-19T14:09:27.048Z,44.69
2018-08-19T14:10:26.963Z,45.00
2018-08-19T14:12:19.774Z,42.32
2018-08-19T14:13:19.668Z,41.27
2018-08-19T14:15:12.448Z,41.19
2018-08-19T14:16:12.380Z,39.86
2018-08-19T14:18:05.353Z,38.34
2018-08-19T14:19:05.278Z,37.57
2018-08-19T14:20:58.075Z,35.94
2018-08-19T14:21:57.997Z,35.96
2018-08-19T14:23:50.771Z,35.19
2018-08-19T14:24:50.704Z,34.51
2018-08-19T14:26:43.729Z,34.72
2018-08-19T14:27:43.653Z,35.02
2018-08-19T14:29:36.680Z,34.56
2018-08-19T14:30:36.728Z,34.34
2018-08-19T14:32:29.702Z,33.67
2018-08-19T14:33:29.626Z,33.70
2018-08-19T14:35:22.533Z,32.74
2018-08-19T14:36:22.466Z,32.92
2018-08-19T14:38:15.253Z,31.39
2018-08-19T14:39:15.192Z,32.15
2018-08-19T14:41:07.988Z,31.97
2018-08-19T14:42:07.916Z,31.48
2018-08-19T14:44:00.697Z,31.98
2018-08-19T14:45:00.635Z,30.60
2018-08-19T14:46:53.457Z,30.69
2018-08-19T14:47:53.388Z,31.26
2018-08-19T14:49:46.406Z,31.29
2018-08-19T14:50:46.344Z,30.72
2018-08-19T14:52:39.377Z,30.41
2018-08-19T14:53:39.323Z,30.31
2018-08-19T14:55:32.348Z,31.35
2018-08-19T14:56:32.273Z,31.36
2018-08-19T14:58:25.250Z,31.15
2018-08-19T14:59:25.194Z,31.16
2018-08-19T15:01:17.991Z,30.52
2018-08-19T15:02:17.927Z,29.65
2018-08-19T15:04:10.719Z,29.34
2018-08-19T15:05:10.656Z,29.44
2018-08-19T15:07:03.452Z,29.37
2018-08-19T15:08:03.386Z,28.20
2018-08-19T15:09:56.359Z,27.33
2018-08-19T15:10:56.115Z,28.64
2018-08-19T15:12:48.969Z,29.00
2018-08-19T15:13:48.903Z,28.21
2018-08-19T15:15:41.935Z,29.25
2018-08-19T15:16:41.887Z,28.38
2018-08-19T15:18:34.940Z,28.58
2018-08-19T15:19:34.867Z,28.40
2018-08-19T15:21:27.651Z,28.83
2018-08-19T15:22:27.593Z,29.43
2018-08-19T15:24:20.386Z,28.97
2018-08-19T15:25:20.322Z,28.69
2018-08-19T15:27:13.118Z,28.48
2018-08-19T15:28:13.049Z,28.69
2018-08-19T15:30:05.844Z,27.20
2018-08-19T15:31:05.779Z,27.42
2018-08-19T15:32:59.000Z,26.76
2018-08-19T15:33:58.520Z,26.17
2018-08-19T15:35:51.316Z,26.18
2018-08-19T15:36:51.262Z,26.56
2018-08-19T15:38:44.612Z,27.70
2018-08-19T15:39:44.552Z,27.62
2018-08-19T15:41:37.333Z,27.04
2018-08-19T15:42:37.271Z,26.56
2018-08-19T15:44:30.073Z,26.87
2018-08-19T15:45:30.006Z,26.56
2018-08-19T15:47:22.810Z,27.70
2018-08-19T15:48:22.744Z,27.13
2018-08-19T15:50:15.531Z,28.20
2018-08-19T15:51:15.462Z,27.22
2018-08-19T15:53:08.265Z,27.09
2018-08-19T15:54:08.197Z,28.37
2018-08-19T15:56:00.987Z,28.56
2018-08-19T15:57:00.925Z,28.37
2018-08-19T15:58:53.723Z,28.38
2018-08-19T15:59:53.649Z,27.31
2018-08-19T16:01:46.432Z,26.75
2018-08-19T16:02:46.374Z,26.77
2018-08-19T16:04:39.400Z,25.60
2018-08-19T16:05:39.334Z,25.72
2018-08-19T16:07:32.135Z,25.49
2018-08-19T16:08:32.065Z,25.76
2018-08-19T16:10:24.848Z,26.65
2018-08-19T16:11:24.790Z,26.86
2018-08-19T16:13:17.587Z,26.92
2018-08-19T16:14:17.513Z,28.17
2018-08-19T16:16:10.306Z,28.58
2018-08-19T16:17:10.245Z,28.70
2018-08-19T16:19:03.177Z,27.24
2018-08-19T16:20:02.972Z,27.25
2018-08-19T16:21:55.957Z,27.15
2018-08-19T16:22:55.900Z,26.35
2018-08-19T16:24:48.934Z,27.03
2018-08-19T16:25:48.868Z,27.22
2018-08-19T16:27:41.672Z,28.47
2018-08-19T16:28:41.588Z,28.34
2018-08-19T16:30:34.381Z,29.13
2018-08-19T16:31:34.316Z,29.25
2018-08-19T16:33:27.159Z,28.00
2018-08-19T16:34:27.040Z,28.00
2018-08-19T16:36:19.834Z,28.05
2018-08-19T16:37:19.798Z,27.73
2018-08-19T16:39:12.631Z,26.84
2018-08-19T16:40:12.494Z,26.84
2018-08-19T16:42:05.480Z,27.62
2018-08-19T16:43:05.411Z,27.52
2018-08-19T16:44:58.210Z,28.44
2018-08-19T16:45:58.138Z,29.34
2018-08-19T16:47:50.925Z,29.82
2018-08-19T16:48:50.864Z,29.34
2018-08-19T16:50:44.497Z,29.33
2018-08-19T16:51:44.341Z,30.11
2018-08-19T16:53:37.132Z,29.14
2018-08-19T16:54:37.068Z,29.41
2018-08-19T16:56:29.848Z,30.10
2018-08-19T16:57:29.909Z,29.23
2018-08-19T16:59:22.580Z,29.52
2018-08-19T17:00:22.511Z,29.51
2018-08-19T17:02:15.295Z,30.11
2018-08-19T17:03:15.235Z,29.52
2018-08-19T17:05:08.026Z,30.25
2018-08-19T17:06:07.953Z,32.27
2018-08-19T17:08:00.735Z,34.55
2018-08-19T17:09:00.678Z,35.77
2018-08-19T17:10:53.484Z,37.60
2018-08-19T17:11:53.402Z,38.06
2018-08-19T17:13:46.451Z,39.69
2018-08-19T17:14:46.360Z,40.56
2018-08-19T17:16:39.702Z,40.93
2018-08-19T17:17:39.636Z,40.62
2018-08-19T17:19:32.420Z,40.93
2018-08-19T17:20:32.350Z,40.93
2018-08-19T17:22:25.142Z,41.89
2018-08-19T17:23:25.064Z,41.99
2018-08-19T17:25:17.847Z,41.99
2018-08-19T17:26:17.870Z,40.91
2018-08-19T17:28:10.546Z,41.19
2018-08-19T17:29:10.484Z,41.48
2018-08-19T17:31:03.279Z,41.38
2018-08-19T17:32:03.193Z,42.35
2018-08-19T17:33:56.176Z,42.35
2018-08-19T17:34:56.113Z,42.94
2018-08-19T17:36:49.158Z,42.06
2018-08-19T17:37:49.077Z,42.45
2018-08-19T17:39:42.170Z,42.84
2018-08-19T17:40:42.044Z,42.65
2018-08-19T17:42:34.803Z,43.11
2018-08-19T17:43:34.733Z,43.11
2018-08-19T17:45:27.583Z,43.30
2018-08-19T17:46:27.445Z,43.50
2018-08-19T17:48:20.201Z,43.79
2018-08-19T17:49:20.139Z,43.50
2018-08-19T17:51:12.922Z,43.50
2018-08-19T17:52:12.854Z,44.67
2018-08-19T17:54:05.616Z,44.38
2018-08-19T17:55:05.552Z,44.57
2018-08-19T17:56:58.335Z,44.45
2018-08-19T17:57:58.257Z,44.94
2018-08-19T17:59:51.043Z,44.84
2018-08-19T18:00:50.955Z,45.14
2018-08-19T18:02:44.031Z,45.42
2018-08-19T18:03:43.960Z,45.60
2018-08-19T18:05:36.828Z,45.79
2018-08-19T18:06:36.658Z,45.79
2018-08-19T18:08:29.453Z,45.89
2018-08-19T18:09:29.377Z,45.89
2018-08-19T18:11:22.162Z,47.25
2018-08-19T18:12:22.084Z,47.44
2018-08-19T18:14:14.850Z,47.23
2018-08-19T18:15:14.790Z,47.52
2018-08-19T18:17:07.562Z,47.81
2018-08-19T18:18:07.531Z,48.58
2018-08-19T18:20:00.260Z,49.34
2018-08-19T18:21:00.183Z,49.24
2018-08-19T18:22:52.953Z,49.15
2018-08-19T18:23:52.883Z,49.92
2018-08-19T18:25:46.198Z,49.73
2018-08-19T18:26:46.120Z,50.21
2018-08-19T18:28:38.896Z,50.70
2018-08-19T18:29:38.824Z,50.60
2018-08-19T18:31:31.598Z,50.77
2018-08-19T18:32:31.523Z,51.16